MT WASHINGTON (MTW)

Elevation: 920' · LOS ANGELES R basin · Operator: Los Angeles County Fire Dept

Query executed Sunday at 3:51:42   clock

Provisional data, subject to change.
Select a sensor type for a plot of data.

Earlier

Date   /   Time   RAIN     TEMP     REL HUM     BAR PRE     FUEL MS     FUEL TP     WIND SP     WIND DR     PEAK WS     PEAK WD     SOLAR R     BAT VOL    
(PST)INCHES   DEG F   %   INCHES   %   DEG F   MPH   DEG   MPH   DEG   W/M^2   VOLTS  
11/22/2014 04:00 0.34 56 58 -- 11 53 -- -- -- -- 0.00 12.3
11/22/2014 05:00 0.34 55 56 -- 11 53 -- -- -- -- 0.00 12.2
11/22/2014 06:00 0.34 57 54 -- 12 54 -- -- -- -- 4.00 12.2
11/22/2014 07:00 0.34 63 44 -- 11 59 -- -- -- -- 42.00 12.5
11/22/2014 08:00 0.34 66 38 -- 11 68 -- -- -- -- 298.00 13.5
11/22/2014 09:00 0.34 67 43 -- 11 68 -- -- -- -- 425.00 13.5
11/22/2014 10:00 0.34 70 38 -- 10 73 -- -- -- -- 550.00 13.5
11/22/2014 11:00 0.34 74 30 -- 10 84 -- -- -- -- 579.00 13.4
11/22/2014 12:00 0.34 74 32 -- 9 88 -- -- -- -- 531.00 13.5
11/22/2014 13:00 0.34 74 38 -- 9 81 -- -- -- -- 461.00 13.5
11/22/2014 14:00 0.34 71 48 -- 9 72 -- -- -- -- 333.00 13.5
11/22/2014 15:00 0.34 67 47 -- 9 65 -- -- -- -- 170.00 13.1
11/22/2014 16:00 0.34 62 54 -- 10 62 -- -- -- -- 25.00 12.6
11/22/2014 17:00 0.34 61 58 -- 10 60 -- -- -- -- 0.00 12.5
11/22/2014 18:00 0.34 60 68 -- 10 59 -- -- -- -- 0.00 12.5
11/22/2014 19:00 0.34 59 83 -- 12 58 -- -- -- -- 0.00 12.5
11/22/2014 20:00 0.34 61 63 -- 12 57 -- -- -- -- 0.00 12.4
11/22/2014 21:00 0.34 59 77 -- 13 57 -- -- -- -- 0.00 12.4
11/22/2014 22:00 0.34 58 86 -- 15 56 -- -- -- -- 0.00 12.4
11/22/2014 23:00 0.34 57 88 -- 16 55 -- -- -- -- 0.00 12.4
11/23/2014 00:00 0.34 56 90 -- 17 55 -- -- -- -- 0.00 12.4
11/23/2014 01:00 0.34 56 90 -- 18 54 -- -- -- -- 0.00 12.4
11/23/2014 02:00 0.34 56 85 -- 18 54 -- -- -- -- 0.00 12.3
11/23/2014 03:00 0.34 56 90 -- 19 54 -- -- -- -- 0.00 12.3

Later | Latest

Warning! This data is preliminary and subject to revision.

Show MTW Map | 24 Hours MTW Data | Plot all MTW Sensors | Daily MTW Data | MTW Info